createdAt,value
2017-05-18T00:00:49.989Z,72.80
2017-05-18T00:01:50.631Z,74.54
2017-05-18T00:02:51.723Z,73.96
2017-05-18T00:03:52.366Z,72.71
2017-05-18T00:04:53.002Z,71.84
2017-05-18T00:05:53.639Z,73.96
2017-05-18T00:06:54.282Z,74.44
2017-05-18T00:07:54.920Z,72.03
2017-05-18T00:08:55.560Z,71.65
2017-05-18T00:09:56.203Z,70.88
2017-05-18T00:10:57.095Z,69.92
2017-05-18T00:11:57.738Z,73.57
2017-05-18T00:12:58.373Z,73.57
2017-05-18T00:13:59.012Z,72.13
2017-05-18T00:14:59.652Z,72.71
2017-05-18T00:16:00.293Z,74.54
2017-05-18T00:17:00.936Z,72.90
2017-05-18T00:18:01.579Z,73.28
2017-05-18T00:19:02.222Z,70.88
2017-05-18T00:20:03.262Z,70.78
2017-05-18T00:21:03.899Z,74.44
2017-05-18T00:22:04.541Z,70.50
2017-05-18T00:23:05.183Z,74.92
2017-05-18T00:24:05.824Z,73.96
2017-05-18T00:25:06.465Z,72.42
2017-05-18T00:26:07.106Z,72.23
2017-05-18T00:27:07.749Z,72.52
2017-05-18T00:28:08.536Z,75.69
2017-05-18T00:29:09.175Z,71.55
2017-05-18T00:30:09.815Z,73.19
2017-05-18T00:31:10.456Z,71.84
2017-05-18T00:32:11.109Z,73.19
2017-05-18T00:33:11.736Z,72.90
2017-05-18T00:34:12.381Z,73.19
2017-05-18T00:35:13.016Z,71.55
2017-05-18T00:36:13.858Z,73.00
2017-05-18T00:37:14.498Z,71.75
2017-05-18T00:38:15.136Z,72.71
2017-05-18T00:39:15.771Z,75.02
2017-05-18T00:40:16.412Z,72.42
2017-05-18T00:41:17.049Z,73.09
2017-05-18T00:42:17.690Z,72.42
2017-05-18T00:43:18.332Z,72.90
2017-05-18T00:44:19.172Z,72.13
2017-05-18T00:45:19.808Z,72.61
2017-05-18T00:46:20.401Z,71.26
2017-05-18T00:47:21.039Z,73.77
2017-05-18T00:48:21.682Z,74.63
2017-05-18T00:49:22.343Z,72.52
2017-05-18T00:50:22.956Z,73.96
2017-05-18T00:51:23.591Z,73.19
2017-05-18T00:52:24.430Z,71.55
2017-05-18T00:53:25.067Z,71.08
2017-05-18T00:54:25.706Z,72.03
2017-05-18T00:55:26.345Z,73.00
2017-05-18T00:56:26.985Z,74.54
2017-05-18T00:57:27.626Z,72.80
2017-05-18T00:58:28.273Z,74.63
2017-05-18T00:59:28.909Z,74.44
2017-05-18T01:00:29.547Z,72.03
2017-05-18T01:01:30.337Z,73.19
2017-05-18T01:02:30.977Z,72.80
2017-05-18T01:03:31.613Z,72.32
2017-05-18T01:04:32.256Z,71.08
2017-05-18T01:05:32.895Z,70.11
2017-05-18T01:06:33.531Z,72.80
2017-05-18T01:07:34.167Z,70.11
2017-05-18T01:08:34.809Z,70.98
2017-05-18T01:09:35.648Z,70.56
2017-05-18T01:10:36.297Z,70.50
2017-05-18T01:11:36.930Z,74.15
2017-05-18T01:12:37.573Z,69.79
2017-05-18T01:13:38.217Z,71.42
2017-05-18T01:14:38.846Z,74.69
2017-05-18T01:15:39.488Z,73.15
2017-05-18T01:16:40.125Z,70.37
2017-05-18T01:17:40.969Z,74.30
2017-05-18T01:18:41.607Z,70.65
2017-05-18T01:19:42.248Z,71.81
2017-05-18T01:20:42.892Z,71.36
2017-05-18T01:21:43.535Z,71.91
2017-05-18T01:22:44.174Z,69.89
2017-05-18T01:23:44.813Z,68.83
2017-05-18T01:24:45.454Z,72.67
2017-05-18T01:25:46.396Z,68.83
2017-05-18T01:26:47.038Z,73.15
2017-05-18T01:27:47.677Z,72.29
2017-05-18T01:28:48.319Z,70.65
2017-05-18T01:29:48.962Z,71.14
2017-05-18T01:30:49.603Z,72.48
2017-05-18T01:31:50.241Z,70.56
2017-05-18T01:32:50.885Z,70.17
2017-05-18T01:33:51.523Z,71.71
2017-05-18T01:34:52.364Z,72.67
2017-05-18T01:35:53.007Z,71.52
2017-05-18T01:36:53.646Z,71.81
2017-05-18T01:37:54.288Z,70.94
2017-05-18T01:38:54.928Z,70.56
2017-05-18T01:39:55.570Z,70.46
2017-05-18T01:40:56.208Z,71.52
2017-05-18T01:41:56.847Z,74.60
2017-05-18T01:42:57.690Z,72.77
2017-05-18T01:43:58.326Z,72.67
2017-05-18T01:44:58.964Z,73.92
2017-05-18T01:45:59.603Z,72.00
2017-05-18T01:47:00.245Z,74.40
2017-05-18T01:48:00.886Z,70.75
2017-05-18T01:49:01.528Z,70.17
2017-05-18T01:50:02.168Z,72.58
2017-05-18T01:51:03.111Z,70.56
2017-05-18T01:52:03.745Z,68.83
2017-05-18T01:53:04.379Z,67.29
2017-05-18T01:54:05.017Z,70.56
2017-05-18T01:55:05.660Z,69.50
2017-05-18T01:56:06.301Z,70.37
2017-05-18T01:57:06.935Z,73.06
2017-05-18T01:58:07.575Z,70.17
2017-05-18T01:59:08.416Z,70.27
2017-05-18T02:00:09.051Z,73.06
2017-05-18T02:01:09.686Z,74.98
2017-05-18T02:02:10.330Z,75.75
2017-05-18T02:03:10.968Z,71.91
2017-05-18T02:04:11.612Z,74.40
2017-05-18T02:05:12.248Z,72.77
2017-05-18T02:06:12.891Z,72.19
2017-05-18T02:07:13.729Z,74.02
2017-05-18T02:08:14.371Z,72.29
2017-05-18T02:09:15.012Z,71.61
2017-05-18T02:10:15.653Z,69.60
2017-05-18T02:11:16.315Z,70.65
2017-05-18T02:12:16.936Z,72.96
2017-05-18T02:13:17.575Z,69.89
2017-05-18T02:14:18.218Z,70.65
2017-05-18T02:15:18.855Z,70.65
2017-05-18T02:16:19.698Z,70.84
2017-05-18T02:17:20.336Z,71.91
2017-05-18T02:18:20.985Z,71.81
2017-05-18T02:19:21.617Z,70.07
2017-05-18T02:20:22.254Z,70.65
2017-05-18T02:21:22.896Z,70.27
2017-05-18T02:22:23.535Z,70.84
2017-05-18T02:23:24.175Z,69.27
2017-05-18T02:24:25.114Z,70.23
2017-05-18T02:25:25.754Z,69.66
2017-05-18T02:26:26.391Z,68.98
2017-05-18T02:27:27.031Z,70.90
2017-05-18T02:28:27.621Z,68.79
2017-05-18T02:29:28.264Z,69.75
2017-05-18T02:30:28.904Z,70.43
2017-05-18T02:31:29.545Z,70.33
2017-05-18T02:32:30.383Z,72.25
2017-05-18T02:33:31.030Z,70.90
2017-05-18T02:34:31.668Z,70.33
2017-05-18T02:35:32.306Z,70.52
2017-05-18T02:36:32.943Z,73.11
2017-05-18T02:37:33.582Z,70.14
2017-05-18T02:38:34.225Z,72.34
2017-05-18T02:39:34.867Z,74.27
2017-05-18T02:40:35.809Z,70.72
2017-05-18T02:41:36.447Z,72.25
2017-05-18T02:42:37.091Z,70.52
2017-05-18T02:43:37.730Z,71.19
2017-05-18T02:44:38.370Z,70.04
2017-05-18T02:45:39.008Z,70.52
2017-05-18T02:46:39.643Z,69.75
2017-05-18T02:47:40.280Z,70.72
2017-05-18T02:48:40.921Z,72.44
2017-05-18T02:49:41.719Z,70.62
2017-05-18T02:50:42.350Z,70.23
2017-05-18T02:51:42.993Z,71.96
2017-05-18T02:52:43.631Z,71.10
2017-05-18T02:53:44.270Z,71.19
2017-05-18T02:54:44.912Z,70.33
2017-05-18T02:55:45.551Z,69.85
2017-05-18T02:56:46.191Z,71.87
2017-05-18T02:57:47.032Z,72.54
2017-05-18T02:58:47.673Z,72.54
2017-05-18T02:59:48.320Z,71.87
2017-05-18T03:00:48.956Z,71.39
2017-05-18T03:01:49.599Z,71.77
2017-05-18T03:02:50.237Z,72.92
2017-05-18T03:03:50.873Z,71.96
2017-05-18T03:04:51.515Z,72.06
2017-05-18T03:05:52.348Z,74.11
2017-05-18T03:06:52.991Z,70.14
2017-05-18T03:07:53.626Z,70.52
2017-05-18T03:08:54.268Z,70.23
2017-05-18T03:09:54.907Z,69.46
2017-05-18T03:10:55.549Z,71.58
2017-05-18T03:11:56.184Z,72.34
2017-05-18T03:12:56.822Z,73.02
2017-05-18T03:13:57.662Z,69.95
2017-05-18T03:14:58.304Z,69.08
2017-05-18T03:15:58.940Z,69.56
2017-05-18T03:16:59.582Z,70.33
2017-05-18T03:18:00.221Z,71.00
2017-05-18T03:19:00.861Z,71.58
2017-05-18T03:20:01.502Z,71.96
2017-05-18T03:21:02.141Z,72.54
2017-05-18T03:22:02.981Z,69.18
2017-05-18T03:23:03.615Z,69.85
2017-05-18T03:24:04.259Z,69.27
2017-05-18T03:25:04.897Z,71.19
2017-05-18T03:26:05.540Z,71.48
2017-05-18T03:27:06.182Z,71.87
2017-05-18T03:28:06.823Z,68.51
2017-05-18T03:29:07.462Z,68.12
2017-05-18T03:30:08.102Z,72.44
2017-05-18T03:31:08.944Z,71.39
2017-05-18T03:32:09.587Z,69.37
2017-05-18T03:33:10.225Z,70.52
2017-05-18T03:34:10.865Z,71.77
2017-05-18T03:35:11.507Z,69.66
2017-05-18T03:36:12.148Z,68.12
2017-05-18T03:37:12.789Z,72.16
2017-05-18T03:38:13.430Z,70.23
2017-05-18T03:39:14.471Z,66.39
2017-05-18T03:40:15.108Z,67.74
2017-05-18T03:41:15.749Z,68.60
2017-05-18T03:42:16.391Z,71.87
2017-05-18T03:43:17.030Z,69.95
2017-05-18T03:44:17.672Z,68.31
2017-05-18T03:45:18.312Z,70.72
2017-05-18T03:46:18.949Z,72.44
2017-05-18T03:47:19.841Z,68.98
2017-05-18T03:48:20.432Z,70.33
2017-05-18T03:49:21.069Z,67.35
2017-05-18T03:50:21.710Z,69.46
2017-05-18T03:51:22.350Z,69.27
2017-05-18T03:52:22.991Z,70.04
2017-05-18T03:53:23.632Z,70.23
2017-05-18T03:54:24.272Z,70.43
2017-05-18T03:55:25.113Z,72.83
2017-05-18T03:56:25.755Z,69.75
2017-05-18T03:57:26.399Z,68.70
2017-05-18T03:58:27.037Z,72.34
2017-05-18T03:59:27.676Z,70.52
2017-05-18T04:00:28.316Z,71.96
2017-05-18T04:01:28.958Z,70.90
2017-05-18T04:02:29.600Z,67.07
2017-05-18T04:03:30.237Z,70.14
2017-05-18T04:04:31.026Z,70.23
2017-05-18T04:05:31.667Z,68.98
2017-05-18T04:06:32.306Z,68.12
2017-05-18T04:07:32.948Z,69.08
2017-05-18T04:08:33.588Z,71.58
2017-05-18T04:09:34.229Z,71.67
2017-05-18T04:10:34.869Z,67.25
2017-05-18T04:11:35.508Z,71.39
2017-05-18T04:12:36.351Z,68.41
2017-05-18T04:13:36.991Z,71.48
2017-05-18T04:14:37.631Z,71.48
2017-05-18T04:15:38.270Z,71.19
2017-05-18T04:16:38.911Z,72.73
2017-05-18T04:17:39.552Z,68.31
2017-05-18T04:18:40.140Z,67.83
2017-05-18T04:19:40.780Z,70.23
2017-05-18T04:20:41.719Z,70.23
2017-05-18T04:21:42.359Z,73.88
2017-05-18T04:22:43.000Z,72.92
2017-05-18T04:23:43.637Z,70.90
2017-05-18T04:24:44.280Z,71.48
2017-05-18T04:25:44.915Z,68.98
2017-05-18T04:26:45.554Z,68.98
2017-05-18T04:27:46.197Z,73.11
2017-05-18T04:28:47.041Z,69.08
2017-05-18T04:29:47.738Z,72.25
2017-05-18T04:30:48.378Z,72.25
2017-05-18T04:31:49.020Z,71.77
2017-05-18T04:32:49.662Z,71.00
2017-05-18T04:33:50.304Z,71.19
2017-05-18T04:34:50.886Z,72.25
2017-05-18T04:35:51.526Z,73.50
2017-05-18T04:36:52.370Z,72.54
2017-05-18T04:37:53.009Z,71.10
2017-05-18T04:38:53.649Z,69.56
2017-05-18T04:39:54.292Z,70.04
2017-05-18T04:40:54.928Z,72.34
2017-05-18T04:41:55.574Z,72.64
2017-05-18T04:42:56.205Z,68.98
2017-05-18T04:43:56.847Z,72.25
2017-05-18T04:44:57.487Z,70.23
2017-05-18T04:45:58.276Z,70.52
2017-05-18T04:46:58.917Z,72.73
2017-05-18T04:47:59.557Z,74.17
2017-05-18T04:49:00.197Z,73.60
2017-05-18T04:50:00.888Z,72.54
2017-05-18T04:51:01.676Z,69.56
2017-05-18T04:52:02.315Z,69.18
2017-05-18T04:53:02.949Z,71.48
2017-05-18T04:54:03.791Z,71.39
2017-05-18T04:55:04.431Z,71.67
2017-05-18T04:56:05.072Z,71.87
2017-05-18T04:57:05.713Z,72.54
2017-05-18T04:58:06.351Z,72.92
2017-05-18T04:59:06.993Z,73.02
2017-05-18T05:00:07.634Z,72.34
2017-05-18T05:01:08.275Z,72.25
2017-05-18T05:02:09.230Z,70.33
2017-05-18T05:03:10.176Z,70.72
2017-05-18T05:04:10.819Z,71.29
2017-05-18T05:05:11.455Z,70.43
2017-05-18T05:06:12.093Z,74.65
2017-05-18T05:07:12.736Z,72.44
2017-05-18T05:08:13.432Z,72.16
2017-05-18T05:09:14.074Z,74.85
2017-05-18T05:10:14.866Z,74.46
2017-05-18T05:11:15.506Z,73.69
2017-05-18T05:12:16.145Z,74.85
2017-05-18T05:13:16.783Z,72.92
2017-05-18T05:14:17.422Z,70.14
2017-05-18T05:15:18.065Z,72.64
2017-05-18T05:16:18.699Z,73.02
2017-05-18T05:17:19.341Z,72.25
2017-05-18T05:18:19.980Z,73.79
2017-05-18T05:19:20.823Z,72.64
2017-05-18T05:20:21.464Z,71.67
2017-05-18T05:21:22.100Z,71.00
2017-05-18T05:22:22.741Z,70.23
2017-05-18T05:23:23.382Z,74.46
2017-05-18T05:24:24.020Z,74.37
2017-05-18T05:25:24.663Z,72.92
2017-05-18T05:26:25.299Z,69.75
2017-05-18T05:27:26.188Z,69.56
2017-05-18T05:28:26.830Z,74.17
2017-05-18T05:29:27.469Z,72.34
2017-05-18T05:30:28.112Z,73.69
2017-05-18T05:31:28.751Z,73.41
2017-05-18T05:32:29.388Z,72.16
2017-05-18T05:33:30.026Z,74.65
2017-05-18T05:34:30.668Z,72.44
2017-05-18T05:35:31.554Z,72.92
2017-05-18T05:36:32.197Z,72.54
2017-05-18T05:37:32.833Z,72.06
2017-05-18T05:38:33.468Z,71.58
2017-05-18T05:39:34.110Z,73.88
2017-05-18T05:40:34.747Z,70.23
2017-05-18T05:41:35.391Z,73.60
2017-05-18T05:42:36.033Z,71.39
2017-05-18T05:43:36.820Z,71.19
2017-05-18T05:44:37.457Z,70.43
2017-05-18T05:45:38.101Z,73.11
2017-05-18T05:46:38.738Z,71.96
2017-05-18T05:47:39.378Z,73.60
2017-05-18T05:48:40.018Z,70.23
2017-05-18T05:49:40.661Z,71.29
2017-05-18T05:50:41.299Z,71.67
2017-05-18T05:51:42.190Z,76.09
2017-05-18T05:52:42.831Z,70.33
2017-05-18T05:53:43.469Z,71.19
2017-05-18T05:54:44.113Z,72.64
2017-05-18T05:55:44.751Z,73.50
2017-05-18T05:56:45.393Z,73.11
2017-05-18T05:57:46.033Z,73.31
2017-05-18T05:58:46.675Z,72.64
2017-05-18T05:59:47.330Z,69.85
2017-05-18T06:00:48.214Z,71.29
2017-05-18T06:01:48.855Z,72.64
2017-05-18T06:02:49.498Z,72.83
2017-05-18T06:03:50.131Z,73.11
2017-05-18T06:04:50.773Z,72.64
2017-05-18T06:05:51.416Z,73.02
2017-05-18T06:06:52.051Z,72.34
2017-05-18T06:07:52.692Z,74.94
2017-05-18T06:08:53.528Z,74.75
2017-05-18T06:09:54.170Z,70.33
2017-05-18T06:10:54.811Z,72.83
2017-05-18T06:11:55.451Z,73.02
2017-05-18T06:12:56.096Z,72.44
2017-05-18T06:13:56.735Z,70.72
2017-05-18T06:14:57.374Z,69.18
2017-05-18T06:15:58.021Z,69.66
2017-05-18T06:16:58.962Z,72.25
2017-05-18T06:17:59.604Z,74.46
2017-05-18T06:19:00.249Z,73.41
2017-05-18T06:20:00.884Z,70.14
2017-05-18T06:21:01.523Z,69.75
2017-05-18T06:22:02.161Z,68.79
2017-05-18T06:23:02.796Z,68.60
2017-05-18T06:24:03.439Z,68.21
2017-05-18T06:25:04.249Z,70.72
2017-05-18T06:26:04.870Z,71.39
2017-05-18T06:27:05.511Z,70.52
2017-05-18T06:28:06.153Z,70.23
2017-05-18T06:29:06.797Z,74.46
2017-05-18T06:30:07.437Z,73.41
2017-05-18T06:31:08.070Z,72.44
2017-05-18T06:32:08.709Z,66.20
2017-05-18T06:33:09.302Z,68.12
2017-05-18T06:34:10.243Z,72.06
2017-05-18T06:35:10.877Z,68.70
2017-05-18T06:36:11.517Z,69.46
2017-05-18T06:37:12.158Z,69.56
2017-05-18T06:38:12.796Z,72.83
2017-05-18T06:39:13.438Z,73.11
2017-05-18T06:40:14.073Z,69.27
2017-05-18T06:41:14.708Z,73.11
2017-05-18T06:42:15.699Z,73.02
2017-05-18T06:43:16.339Z,69.08
2017-05-18T06:44:16.979Z,71.77
2017-05-18T06:45:17.622Z,72.54
2017-05-18T06:46:18.265Z,70.14
2017-05-18T06:47:18.907Z,71.96
2017-05-18T06:48:19.541Z,68.98
2017-05-18T06:49:20.182Z,71.29
2017-05-18T06:50:21.127Z,71.58
2017-05-18T06:51:22.086Z,70.14
2017-05-18T06:52:22.725Z,67.54
2017-05-18T06:53:23.417Z,70.04
2017-05-18T06:54:24.053Z,68.98
2017-05-18T06:55:24.694Z,70.04
2017-05-18T06:56:25.333Z,72.16
2017-05-18T06:57:25.974Z,71.77
2017-05-18T06:58:26.965Z,67.64
2017-05-18T06:59:27.606Z,66.39
2017-05-18T07:00:28.254Z,68.79
2017-05-18T07:01:28.891Z,70.52
2017-05-18T07:02:29.533Z,70.52
2017-05-18T07:03:30.171Z,70.14
2017-05-18T07:04:30.812Z,71.29
2017-05-18T07:05:31.451Z,71.67
2017-05-18T07:06:32.493Z,68.79
2017-05-18T07:07:33.131Z,69.27
2017-05-18T07:08:33.769Z,66.97
2017-05-18T07:09:34.406Z,67.16
2017-05-18T07:10:35.044Z,69.66
2017-05-18T07:11:35.683Z,72.06
2017-05-18T07:12:36.324Z,70.90
2017-05-18T07:13:36.963Z,71.58
2017-05-18T07:14:37.600Z,72.83
2017-05-18T07:15:38.592Z,70.14
2017-05-18T07:16:39.233Z,69.56
2017-05-18T07:17:39.875Z,72.64
2017-05-18T07:18:40.510Z,68.21
2017-05-18T07:19:41.152Z,68.51
2017-05-18T07:20:41.793Z,71.29
2017-05-18T07:21:42.435Z,71.19
2017-05-18T07:22:43.074Z,68.51
2017-05-18T07:23:44.068Z,69.46
2017-05-18T07:24:44.708Z,68.89
2017-05-18T07:25:45.351Z,67.54
2017-05-18T07:26:45.990Z,67.54
2017-05-18T07:27:46.632Z,69.37
2017-05-18T07:28:47.272Z,67.03
2017-05-18T07:29:47.912Z,71.29
2017-05-18T07:30:48.548Z,69.53
2017-05-18T07:31:49.637Z,68.98
2017-05-18T07:32:50.278Z,75.52
2017-05-18T07:33:50.918Z,70.23
2017-05-18T07:34:51.560Z,68.12
2017-05-18T07:35:52.206Z,71.10
2017-05-18T07:36:52.849Z,68.51
2017-05-18T07:37:53.490Z,72.44
2017-05-18T07:38:54.143Z,65.62
2017-05-18T07:39:54.921Z,65.05
2017-05-18T07:40:55.566Z,63.99
2017-05-18T07:41:56.210Z,65.14
2017-05-18T07:42:56.851Z,64.15
2017-05-18T07:43:57.493Z,64.15
2017-05-18T07:44:58.134Z,64.72
2017-05-18T07:45:58.774Z,64.72
2017-05-18T07:46:59.411Z,63.67
2017-05-18T07:48:00.053Z,62.61
2017-05-18T07:49:00.891Z,62.42
2017-05-18T07:50:01.532Z,62.90
2017-05-18T07:51:02.493Z,62.23
2017-05-18T07:52:03.133Z,61.08
2017-05-18T07:53:03.773Z,62.61
2017-05-18T07:54:04.416Z,63.67
2017-05-18T07:55:05.058Z,60.69
2017-05-18T07:56:05.698Z,62.04
2017-05-18T07:57:06.689Z,60.98
2017-05-18T07:58:07.331Z,61.55
2017-05-18T07:59:07.972Z,62.13
2017-05-18T08:00:08.613Z,62.23
2017-05-18T08:01:09.256Z,60.98
2017-05-18T08:02:09.888Z,64.53
2017-05-18T08:03:10.525Z,60.98
2017-05-18T08:04:11.163Z,61.36
2017-05-18T08:05:12.052Z,60.02
2017-05-18T08:06:12.693Z,59.83
2017-05-18T08:07:13.332Z,60.60
2017-05-18T08:08:13.977Z,61.36
2017-05-18T08:09:14.618Z,63.38
2017-05-18T08:10:15.257Z,63.19
2017-05-18T08:11:15.899Z,61.27
2017-05-18T08:12:16.541Z,62.61
2017-05-18T08:13:17.337Z,60.11
2017-05-18T08:14:17.976Z,65.97
2017-05-18T08:15:18.617Z,62.23
2017-05-18T08:16:19.258Z,60.78
2017-05-18T08:17:19.900Z,60.98
2017-05-18T08:18:20.538Z,60.98
2017-05-18T08:19:21.174Z,62.32
2017-05-18T08:20:21.814Z,60.98
2017-05-18T08:21:22.650Z,60.31
2017-05-18T08:22:23.291Z,59.64
2017-05-18T08:23:23.928Z,57.62
2017-05-18T08:24:24.569Z,58.39
2017-05-18T08:25:25.209Z,59.44
2017-05-18T08:26:25.845Z,60.40
2017-05-18T08:27:26.490Z,60.11
2017-05-18T08:28:27.133Z,59.16
2017-05-18T08:29:27.778Z,59.25
2017-05-18T08:30:28.612Z,59.73
2017-05-18T08:31:29.255Z,58.77
2017-05-18T08:32:29.892Z,58.58
2017-05-18T08:33:30.534Z,58.94
2017-05-18T08:34:31.176Z,58.67
2017-05-18T08:35:31.816Z,60.31
2017-05-18T08:36:32.457Z,59.44
2017-05-18T08:37:33.097Z,58.10
2017-05-18T08:38:33.938Z,60.11
2017-05-18T08:39:34.578Z,59.70
2017-05-18T08:40:35.217Z,60.08
2017-05-18T08:41:35.852Z,58.58
2017-05-18T08:42:36.487Z,58.87
2017-05-18T08:43:37.132Z,58.58
2017-05-18T08:44:37.772Z,59.54
2017-05-18T08:45:38.414Z,59.99
2017-05-18T08:46:39.250Z,60.60
2017-05-18T08:47:39.890Z,59.64
2017-05-18T08:48:40.533Z,59.73
2017-05-18T08:49:41.177Z,59.92
2017-05-18T08:50:41.818Z,60.02
2017-05-18T08:51:42.459Z,60.50
2017-05-18T08:52:43.102Z,59.73
2017-05-18T08:53:43.734Z,60.88
2017-05-18T08:54:44.526Z,59.92
2017-05-18T08:55:45.166Z,59.54
2017-05-18T08:56:45.806Z,59.54
2017-05-18T08:57:46.449Z,60.69
2017-05-18T08:58:47.034Z,64.15
2017-05-18T08:59:47.676Z,62.23
2017-05-18T09:00:48.312Z,59.54
2017-05-18T09:01:48.952Z,62.04
2017-05-18T09:02:49.592Z,58.77
2017-05-18T09:03:50.450Z,58.67
2017-05-18T09:04:51.075Z,58.87
2017-05-18T09:05:51.720Z,60.31
2017-05-18T09:06:52.355Z,58.96
2017-05-18T09:07:52.993Z,59.25
2017-05-18T09:08:53.634Z,59.44
2017-05-18T09:09:54.275Z,59.92
2017-05-18T09:10:54.918Z,59.44
2017-05-18T09:11:55.759Z,57.71
2017-05-18T09:12:56.406Z,57.43
2017-05-18T09:13:57.042Z,58.29
2017-05-18T09:14:57.683Z,58.77
2017-05-18T09:15:58.318Z,59.83
2017-05-18T09:16:58.960Z,61.17
2017-05-18T09:17:59.596Z,59.34
2017-05-18T09:19:00.239Z,59.16
2017-05-18T09:20:01.080Z,58.87
2017-05-18T09:21:01.716Z,59.73
2017-05-18T09:22:02.358Z,59.25
2017-05-18T09:23:03.004Z,59.34
2017-05-18T09:24:03.642Z,59.64
2017-05-18T09:25:04.276Z,61.75
2017-05-18T09:26:04.917Z,63.19
2017-05-18T09:27:05.557Z,60.78
2017-05-18T09:28:06.348Z,60.11
2017-05-18T09:29:06.989Z,62.16
2017-05-18T09:30:07.629Z,63.02
2017-05-18T09:31:08.269Z,60.53
2017-05-18T09:32:08.913Z,59.47
2017-05-18T09:33:09.556Z,58.87
2017-05-18T09:34:10.193Z,59.86
2017-05-18T09:35:10.835Z,60.11
2017-05-18T09:36:11.674Z,60.69
2017-05-18T09:37:12.311Z,58.89
2017-05-18T09:38:12.949Z,59.38
2017-05-18T09:39:13.589Z,60.43
2017-05-18T09:40:14.237Z,59.66
2017-05-18T09:41:14.865Z,59.95
2017-05-18T09:42:15.505Z,62.35
2017-05-18T09:43:16.145Z,61.68
2017-05-18T09:44:16.788Z,62.26
2017-05-18T09:45:17.632Z,61.49
2017-05-18T09:46:18.271Z,60.05
2017-05-18T09:47:18.933Z,60.14
2017-05-18T09:48:19.550Z,60.72
2017-05-18T09:49:20.187Z,60.34
2017-05-18T09:50:20.826Z,60.91
2017-05-18T09:51:21.464Z,60.82
2017-05-18T09:52:22.105Z,60.34
2017-05-18T09:53:22.945Z,60.53
2017-05-18T09:54:23.590Z,59.86
2017-05-18T09:55:24.225Z,60.43
2017-05-18T09:56:24.865Z,60.53
2017-05-18T09:57:25.506Z,60.72
2017-05-18T09:58:26.142Z,60.43
2017-05-18T09:59:26.781Z,60.53
2017-05-18T10:00:27.423Z,59.86
2017-05-18T10:01:28.212Z,59.76
2017-05-18T10:02:28.855Z,59.66
2017-05-18T10:03:29.496Z,59.66
2017-05-18T10:04:30.138Z,59.38
2017-05-18T10:05:30.780Z,60.82
2017-05-18T10:06:31.420Z,59.57
2017-05-18T10:07:32.057Z,60.43
2017-05-18T10:08:32.697Z,59.95
2017-05-18T10:09:33.534Z,59.47
2017-05-18T10:10:34.177Z,58.99
2017-05-18T10:11:34.816Z,59.57
2017-05-18T10:12:35.453Z,58.83
2017-05-18T10:13:36.091Z,58.64
2017-05-18T10:14:36.732Z,59.31
2017-05-18T10:15:37.368Z,59.22
2017-05-18T10:16:38.008Z,59.69
2017-05-18T10:17:38.649Z,58.54
2017-05-18T10:18:39.784Z,58.92
2017-05-18T10:19:40.426Z,58.45
2017-05-18T10:20:41.067Z,57.97
2017-05-18T10:21:41.710Z,57.48
2017-05-18T10:22:42.346Z,58.35
2017-05-18T10:23:42.985Z,58.15
2017-05-18T10:24:43.623Z,57.87
2017-05-18T10:25:44.265Z,58.45
2017-05-18T10:26:45.059Z,58.06
2017-05-18T10:27:45.712Z,57.60
2017-05-18T10:28:46.337Z,57.60
2017-05-18T10:29:46.982Z,58.37
2017-05-18T10:30:47.623Z,58.67
2017-05-18T10:31:48.264Z,57.70
2017-05-18T10:32:48.906Z,57.10
2017-05-18T10:33:49.494Z,57.10
2017-05-18T10:34:50.334Z,57.58
2017-05-18T10:35:50.975Z,58.15
2017-05-18T10:36:51.615Z,57.48
2017-05-18T10:37:52.256Z,58.73
2017-05-18T10:38:52.899Z,59.69
2017-05-18T10:39:53.536Z,58.35
2017-05-18T10:40:54.177Z,57.97
2017-05-18T10:41:54.822Z,57.97
2017-05-18T10:42:55.659Z,58.54
2017-05-18T10:43:56.300Z,58.64
2017-05-18T10:44:56.941Z,58.15
2017-05-18T10:45:57.582Z,56.62
2017-05-18T10:46:58.225Z,56.91
2017-05-18T10:47:58.869Z,56.14
2017-05-18T10:48:59.509Z,56.62
2017-05-18T10:50:00.145Z,56.81
2017-05-18T10:51:00.931Z,57.48
2017-05-18T10:52:01.574Z,60.66
2017-05-18T10:53:02.213Z,55.85
2017-05-18T10:54:02.854Z,56.43
2017-05-18T10:55:03.496Z,59.44
2017-05-18T10:56:04.138Z,59.44
2017-05-18T10:57:04.775Z,59.53
2017-05-18T10:58:05.411Z,58.37
2017-05-18T10:59:06.054Z,56.45
2017-05-18T11:00:06.897Z,56.26
2017-05-18T11:01:07.533Z,58.09
2017-05-18T11:02:08.177Z,57.13
2017-05-18T11:03:08.816Z,60.11
2017-05-18T11:04:09.456Z,57.70
2017-05-18T11:05:10.098Z,57.13
2017-05-18T11:06:10.739Z,59.92
2017-05-18T11:07:11.376Z,58.18
2017-05-18T11:08:12.168Z,55.88
2017-05-18T11:09:12.810Z,54.53
2017-05-18T11:10:13.453Z,58.76
2017-05-18T11:11:14.094Z,58.37
2017-05-18T11:12:14.735Z,59.44
2017-05-18T11:13:15.381Z,58.67
2017-05-18T11:14:16.024Z,59.72
2017-05-18T11:15:16.664Z,56.84
2017-05-18T11:16:17.499Z,53.76
2017-05-18T11:17:18.143Z,53.96
2017-05-18T11:18:18.782Z,57.70
2017-05-18T11:19:19.427Z,59.27
2017-05-18T11:20:20.061Z,57.60
2017-05-18T11:21:20.699Z,58.60
2017-05-18T11:22:21.342Z,57.64
2017-05-18T11:23:21.983Z,56.29
2017-05-18T11:24:22.824Z,54.75
2017-05-18T11:25:23.468Z,53.31
2017-05-18T11:26:24.108Z,55.33
2017-05-18T11:27:24.751Z,55.13
2017-05-18T11:28:25.393Z,57.15
2017-05-18T11:29:26.035Z,56.29
2017-05-18T11:30:26.672Z,56.29
2017-05-18T11:31:27.312Z,55.43
2017-05-18T11:32:27.945Z,54.75
2017-05-18T11:33:28.840Z,52.73
2017-05-18T11:34:29.480Z,57.54
2017-05-18T11:35:30.124Z,54.75
2017-05-18T11:36:30.766Z,56.96
2017-05-18T11:37:31.408Z,57.64
2017-05-18T11:38:32.053Z,58.50
2017-05-18T11:39:32.687Z,57.54
2017-05-18T11:40:33.322Z,58.22
2017-05-18T11:41:34.261Z,57.15
2017-05-18T11:42:34.898Z,55.04
2017-05-18T11:43:35.535Z,54.46
2017-05-18T11:44:36.175Z,54.75
2017-05-18T11:45:36.812Z,53.78
2017-05-18T11:46:37.451Z,54.85
2017-05-18T11:47:38.095Z,56.67
2017-05-18T11:48:38.730Z,56.87
2017-05-18T11:49:39.616Z,55.81
2017-05-18T11:50:40.258Z,54.56
2017-05-18T11:51:40.900Z,54.27
2017-05-18T11:52:41.542Z,54.27
2017-05-18T11:53:42.182Z,55.43
2017-05-18T11:54:42.825Z,56.41
2017-05-18T11:55:43.461Z,56.38
2017-05-18T11:56:44.100Z,55.93
2017-05-18T11:57:44.845Z,56.00
2017-05-18T11:58:45.494Z,54.56
2017-05-18T11:59:46.131Z,54.10
2017-05-18T12:00:46.773Z,54.46
2017-05-18T12:01:47.414Z,54.87
2017-05-18T12:02:48.057Z,53.91
2017-05-18T12:03:48.697Z,54.49
2017-05-18T12:04:49.339Z,53.72
2017-05-18T12:05:50.381Z,54.58
2017-05-18T12:06:51.022Z,55.26
2017-05-18T12:07:51.662Z,55.83
2017-05-18T12:08:52.298Z,55.33
2017-05-18T12:09:52.942Z,53.43
2017-05-18T12:10:53.584Z,54.78
2017-05-18T12:11:54.221Z,56.60
2017-05-18T12:12:54.865Z,56.51
2017-05-18T12:13:55.505Z,55.35
2017-05-18T12:14:56.344Z,54.78
2017-05-18T12:15:56.986Z,54.20
2017-05-18T12:16:57.624Z,55.55
2017-05-18T12:17:58.260Z,55.71
2017-05-18T12:18:58.904Z,56.20
2017-05-18T12:19:59.547Z,56.80
2017-05-18T12:21:00.189Z,56.48
2017-05-18T12:22:00.830Z,56.41
2017-05-18T12:23:01.672Z,54.97
2017-05-18T12:24:02.314Z,54.78
2017-05-18T12:25:02.955Z,54.78
2017-05-18T12:26:03.599Z,55.74
2017-05-18T12:27:04.239Z,56.12
2017-05-18T12:28:04.882Z,56.90
2017-05-18T12:29:05.524Z,56.80
2017-05-18T12:30:06.167Z,56.90
2017-05-18T12:31:06.960Z,56.90
2017-05-18T12:32:07.602Z,57.67
2017-05-18T12:33:08.244Z,56.70
2017-05-18T12:34:08.886Z,57.64
2017-05-18T12:35:09.526Z,56.51
2017-05-18T12:36:10.165Z,56.41
2017-05-18T12:37:10.807Z,56.12
2017-05-18T12:38:11.450Z,56.99
2017-05-18T12:39:12.386Z,57.47
2017-05-18T12:40:13.025Z,57.67
2017-05-18T12:41:13.669Z,58.05
2017-05-18T12:42:14.309Z,57.37
2017-05-18T12:43:15.003Z,57.18
2017-05-18T12:44:15.793Z,54.97
2017-05-18T12:45:16.638Z,56.70
2017-05-18T12:46:17.279Z,57.67
2017-05-18T12:47:17.923Z,57.86
2017-05-18T12:48:18.564Z,57.76
2017-05-18T12:49:19.208Z,57.28
2017-05-18T12:50:19.848Z,56.03
2017-05-18T12:51:20.812Z,54.68
2017-05-18T12:52:21.454Z,54.87
2017-05-18T12:53:22.151Z,56.70
2017-05-18T12:54:22.787Z,55.07
2017-05-18T12:55:23.430Z,55.93
2017-05-18T12:56:24.071Z,55.07
2017-05-18T12:57:24.710Z,55.07
2017-05-18T12:58:25.354Z,52.75
2017-05-18T12:59:26.053Z,53.62
2017-05-18T13:00:26.696Z,54.78
2017-05-18T13:01:27.539Z,54.97